All
Hooker Creek Airport (Hooker Creek, Northern Territory) HOK Weather
|
Hooker Creek, Northern Territory (HOK / YHOO)
Clear skies
Windy |
|
80 °F |
HOK Terminal Area Forecast
| Here is the undecoded forecast: 2026/05/03 18:01 YHOO 031801Z 0320/0408 VRB03KT CAVOK FM040000 10010KT CAVOK PROB30 TEMPO 0405/0408 VRB20G40KT 1000 TSRA SCT015 SCT060CB RMK T 21 24 31 32 Q 1014 1016 1016 1013 |
Recent HOK METAR history
| Date | Time (ACST) | Flight Rules | Wind Dir. | Speed | Type | Height AGL (ft) | Visibility | Temp (°C) | Temp (°F) | Dew Point (°C) | Dew Point (°F) | Rel. Humid. | Pressure | Density Altitude | Remarks |
|---|---|---|---|---|---|---|---|---|---|---|---|---|---|---|---|
| 04-May | 09:30AM | n/a | 100° | 11 kt | Missing | 27° | 80° | 19° | 66° | 62% | 1016 mb | 2,632 ft | |||
| 04-May | 08:30AM | n/a | 140° | 5 kt | Missing | 24° | 75° | 19° | 66° | 74% | 1015 mb | 2,302 ft | |||
| 04-May | 07:30AM | n/a | 150° | 5 kt | Missing | 21° | 69° | 18° | 64° | 83% | 1015 mb | 1,942 ft | |||
| 04-May | 06:30AM | n/a | 130° | 4 kt | Missing | 21° | 69° | 18° | 64° | 83% | 1014 mb | 1,971 ft | |||
| 04-May | 05:30AM | n/a | 100° | 2 kt | Missing | 21° | 69° | 18° | 64° | 83% | 1013 mb | 2,001 ft | |||
| 04-May | 04:30AM | n/a | 100° | 3 kt | Missing | 22° | 71° | 18° | 64° | 78% | 1013 mb | 2,121 ft | |||
| 04-May | 03:30AM | n/a | 110° | 3 kt | Missing | 23° | 73° | 18° | 64° | 73% | 1014 mb | 2,211 ft | |||
| 04-May | 02:30AM | n/a | 90° | 6 kt | Missing | 24° | 75° | 18° | 64° | 69% | 1014 mb | 2,331 ft | |||
| 04-May | 01:30AM | n/a | 80° | 5 kt | Missing | 25° | 77° | 17° | 62° | 61% | 1014 mb | 2,451 ft | |||
| 04-May | 12:30AM | n/a | Calm | Missing | 24° | 75° | 18° | 64° | 69% | 1014 mb | 2,331 ft | ||||
| 03-May | 11:30PM | n/a | 60° | 5 kt | Missing | 25° | 77° | 17° | 62° | 61% | 1014 mb | 2,451 ft | |||
| 03-May | 10:30PM | n/a | 10° | 4 kt | Missing | 26° | 78° | 17° | 62° | 58% | 1015 mb | 2,542 ft | |||
| 03-May | 09:30PM | n/a | 120° | 5 kt | Missing | 26° | 78° | 17° | 62° | 58% | 1015 mb | 2,542 ft | |||
| 03-May | 08:30PM | n/a | 120° | 5 kt | Missing | 26° | 78° | 17° | 62° | 58% | 1014 mb | 2,571 ft | |||
| 03-May | 07:30PM | n/a | 100° | 5 kt | Missing | 27° | 80° | 17° | 62° | 54% | 1013 mb | 2,721 ft | |||
| 03-May | 06:30PM | n/a | 120° | 6 kt | Missing | 29° | 84° | 17° | 62° | 48% | 1013 mb | 2,961 ft | |||
| 03-May | 05:30PM | n/a | 190° | 7 kt | Missing | 31° | 87° | 18° | 64° | 46% | 1012 mb | 3,230 ft | |||
| 03-May | 04:30PM | n/a | Calm | Missing | 33° | 91° | 15° | 59° | 34% | 1011 mb | 3,500 ft | ||||
| 03-May | 03:30PM | n/a | 10° | 4 kt | Missing | 33° | 91° | 15° | 59° | 34% | 1012 mb | 3,470 ft | |||
| 03-May | 02:30PM | n/a | 60° | 5 kt | Missing | 34° | 93° | 15° | 59° | 32% | 1012 mb | 3,590 ft | |||
| 03-May | 01:30PM | n/a | 40° | 5 kt | Missing | 34° | 93° | 16° | 60° | 34% | 1013 mb | 3,561 ft | |||
| 03-May | 12:30PM | n/a | 320° | 3 kt | Missing | 33° | 91° | 17° | 62° | 39% | 1014 mb | 3,411 ft | |||
| 03-May | 11:30AM | n/a | 60° | 6 kt | Missing | 33° | 91° | 18° | 64° | 41% | 1015 mb | 3,382 ft | |||
| 03-May | 10:30AM | n/a | 50° | 6 kt | Missing | 31° | 87° | 18° | 64° | 46% | 1015 mb | 3,142 ft |
Login
| Your browser is unsupported. upgrade your browser |
